createdAt,value
2023-03-26T00:00:54.144Z,81.81
2023-03-26T00:03:20.610Z,81.86
2023-03-26T00:05:48.165Z,81.67
2023-03-26T00:08:16.804Z,81.04
2023-03-26T00:10:44.087Z,80.86
2023-03-26T00:13:11.219Z,81.41
2023-03-26T00:15:38.313Z,80.93
2023-03-26T00:18:05.675Z,81.68
2023-03-26T00:20:35.308Z,80.65
2023-03-26T00:23:01.912Z,80.51
2023-03-26T00:25:28.391Z,79.87
2023-03-26T00:27:55.573Z,80.41
2023-03-26T00:30:22.183Z,79.73
2023-03-26T00:32:53.588Z,79.68
2023-03-26T00:35:22.291Z,79.30
2023-03-26T00:37:51.437Z,79.36
2023-03-26T00:40:17.937Z,79.49
2023-03-26T00:42:44.500Z,78.52
2023-03-26T00:45:11.324Z,78.83
2023-03-26T00:47:40.008Z,78.80
2023-03-26T00:50:07.567Z,79.16
2023-03-26T00:52:36.122Z,79.16
2023-03-26T00:55:03.016Z,78.88
2023-03-26T00:57:35.591Z,79.20
2023-03-26T01:00:18.813Z,78.69
2023-03-26T01:02:46.177Z,78.89
2023-03-26T01:06:11.233Z,78.66
2023-03-26T01:08:49.558Z,78.06
2023-03-26T01:11:21.823Z,78.07
2023-03-26T01:13:54.649Z,77.95
2023-03-26T01:16:27.884Z,77.64
2023-03-26T01:18:58.601Z,77.10
2023-03-26T01:21:30.117Z,77.42
2023-03-26T01:24:01.638Z,77.60
2023-03-26T01:26:43.263Z,78.36
2023-03-26T01:29:20.728Z,77.86
2023-03-26T01:32:34.796Z,76.64
2023-03-26T01:35:25.958Z,77.52
2023-03-26T01:38:18.482Z,77.52
2023-03-26T01:40:51.009Z,77.79
2023-03-26T01:43:26.448Z,77.86
2023-03-26T01:45:54.392Z,78.50
2023-03-26T01:48:21.096Z,78.02
2023-03-26T01:50:48.908Z,78.44
2023-03-26T01:53:15.655Z,78.57
2023-03-26T01:55:43.472Z,78.84
2023-03-26T01:58:26.392Z,78.16
2023-03-26T02:01:06.916Z,78.66
2023-03-26T02:03:47.476Z,78.34
2023-03-26T02:06:26.437Z,77.36
2023-03-26T02:08:56.601Z,78.68
2023-03-26T02:11:23.572Z,78.73
2023-03-26T02:13:51.210Z,78.84
2023-03-26T02:16:20.276Z,78.37
2023-03-26T02:18:51.307Z,78.31
2023-03-26T02:21:21.363Z,78.60
2023-03-26T02:23:50.771Z,78.61
2023-03-26T02:26:20.186Z,78.85
2023-03-26T02:28:46.597Z,78.98
2023-03-26T02:31:13.677Z,79.06
2023-03-26T02:33:40.194Z,79.07
2023-03-26T02:36:08.371Z,79.60
2023-03-26T02:38:35.176Z,79.15
2023-03-26T02:41:02.716Z,80.04
2023-03-26T02:43:29.161Z,80.01
2023-03-26T02:45:56.021Z,79.39
2023-03-26T02:48:22.953Z,80.19
2023-03-26T02:50:54.225Z,79.63
2023-03-26T02:53:23.706Z,80.03
2023-03-26T02:55:50.221Z,79.82
2023-03-26T02:58:17.406Z,79.20
2023-03-26T03:00:46.721Z,79.17
2023-03-26T03:03:13.778Z,79.29
2023-03-26T03:05:43.143Z,79.77
2023-03-26T03:08:10.114Z,79.21
2023-03-26T03:10:37.741Z,78.88
2023-03-26T03:13:07.632Z,79.51
2023-03-26T03:15:34.914Z,79.53
2023-03-26T03:18:02.069Z,79.29
2023-03-26T03:20:30.259Z,79.45
2023-03-26T03:22:56.666Z,80.10
2023-03-26T03:25:23.320Z,80.00
2023-03-26T03:27:50.253Z,79.67
2023-03-26T03:30:17.012Z,80.03
2023-03-26T03:32:43.482Z,80.48
2023-03-26T03:35:10.150Z,80.73
2023-03-26T03:37:36.670Z,80.78
2023-03-26T03:40:05.354Z,81.26
2023-03-26T03:42:31.715Z,80.66
2023-03-26T03:44:58.057Z,80.94
2023-03-26T03:47:24.522Z,79.99
2023-03-26T03:49:51.756Z,80.12
2023-03-26T03:52:18.378Z,80.14
2023-03-26T03:54:45.214Z,79.45
2023-03-26T03:57:11.642Z,79.71
2023-03-26T03:59:38.054Z,79.48
2023-03-26T04:02:14.137Z,79.64
2023-03-26T04:04:40.640Z,80.34
2023-03-26T04:07:07.062Z,79.99
2023-03-26T04:09:33.463Z,79.86
2023-03-26T04:11:59.793Z,80.19
2023-03-26T04:14:26.229Z,80.35
2023-03-26T04:16:52.647Z,80.56
2023-03-26T04:19:19.089Z,80.85
2023-03-26T04:21:45.437Z,80.97
2023-03-26T04:24:11.970Z,81.21
2023-03-26T04:26:38.380Z,81.26
2023-03-26T04:29:06.875Z,81.41
2023-03-26T04:31:34.003Z,81.75
2023-03-26T04:34:20.093Z,81.76
2023-03-26T04:36:46.494Z,82.05
2023-03-26T04:39:13.445Z,82.21
2023-03-26T04:41:40.555Z,82.77
2023-03-26T04:44:06.995Z,82.37
2023-03-26T04:46:33.730Z,82.96
2023-03-26T04:49:01.082Z,83.54
2023-03-26T04:51:41.969Z,83.89
2023-03-26T04:54:12.588Z,84.24
2023-03-26T04:56:59.189Z,84.94
2023-03-26T04:59:34.970Z,85.56
2023-03-26T05:02:03.522Z,85.64
2023-03-26T05:04:30.119Z,86.00
2023-03-26T05:07:00.816Z,85.90
2023-03-26T05:09:27.862Z,86.14
2023-03-26T05:11:54.326Z,86.37
2023-03-26T05:14:20.886Z,87.05
2023-03-26T05:16:50.350Z,87.20
2023-03-26T05:19:16.818Z,87.22
2023-03-26T05:21:43.320Z,87.03
2023-03-26T05:24:09.826Z,87.20
2023-03-26T05:26:36.917Z,87.58
2023-03-26T05:29:04.934Z,87.76
2023-03-26T05:31:31.298Z,87.95
2023-03-26T05:34:00.262Z,88.06
2023-03-26T05:36:28.380Z,89.04
2023-03-26T05:38:55.004Z,87.75
2023-03-26T05:41:21.413Z,87.88
2023-03-26T05:43:48.870Z,87.88
2023-03-26T05:46:15.997Z,88.18
2023-03-26T05:48:42.479Z,87.54
2023-03-26T05:51:09.212Z,88.23
2023-03-26T05:53:36.021Z,87.93
2023-03-26T05:56:02.463Z,87.90
2023-03-26T05:58:31.642Z,87.98
2023-03-26T06:00:59.983Z,88.13
2023-03-26T06:03:26.632Z,86.87
2023-03-26T06:05:53.194Z,87.35
2023-03-26T06:08:20.830Z,87.27
2023-03-26T06:10:47.598Z,87.04
2023-03-26T06:13:16.129Z,86.91
2023-03-26T06:15:42.919Z,86.14
2023-03-26T06:18:09.641Z,85.98
2023-03-26T06:20:36.398Z,86.38
2023-03-26T06:23:02.900Z,86.20
2023-03-26T06:25:29.311Z,85.34
2023-03-26T06:27:55.721Z,85.40
2023-03-26T06:30:22.121Z,85.66
2023-03-26T06:32:48.710Z,85.09
2023-03-26T06:35:15.224Z,84.95
2023-03-26T06:37:42.418Z,84.94
2023-03-26T06:40:09.348Z,84.86
2023-03-26T06:43:09.332Z,85.35
2023-03-26T06:45:22.368Z,84.39
2023-03-26T06:47:48.844Z,84.69
2023-03-26T06:50:15.289Z,84.42
2023-03-26T06:52:41.724Z,84.18
2023-03-26T06:55:08.596Z,84.47
2023-03-26T06:57:34.986Z,84.28
2023-03-26T07:00:01.612Z,84.25
2023-03-26T07:02:28.379Z,84.01
2023-03-26T07:04:54.762Z,84.44
2023-03-26T07:07:23.895Z,84.84
2023-03-26T07:09:51.008Z,84.93
2023-03-26T07:12:17.633Z,84.57
2023-03-26T07:14:44.094Z,85.26
2023-03-26T07:17:10.622Z,83.95
2023-03-26T07:19:37.017Z,83.64
2023-03-26T07:22:03.795Z,83.79
2023-03-26T07:24:30.586Z,83.44
2023-03-26T07:27:17.464Z,83.12
2023-03-26T07:29:49.798Z,83.58
2023-03-26T07:32:24.207Z,83.19
2023-03-26T07:35:05.855Z,82.57
2023-03-26T07:38:16.749Z,83.05
2023-03-26T07:40:52.417Z,82.38
2023-03-26T07:43:36.830Z,82.17
2023-03-26T07:46:03.540Z,82.20
2023-03-26T07:48:47.769Z,82.68
2023-03-26T07:51:18.788Z,82.93
2023-03-26T07:53:45.544Z,80.96
2023-03-26T07:56:16.353Z,81.82
2023-03-26T07:59:31.161Z,82.00
2023-03-26T08:02:18.635Z,82.00
2023-03-26T08:05:18.664Z,83.32
2023-03-26T08:08:27.109Z,82.43
2023-03-26T08:11:23.514Z,82.71
2023-03-26T08:13:52.819Z,82.73
2023-03-26T08:16:28.058Z,83.52
2023-03-26T08:18:54.505Z,84.06
2023-03-26T08:21:26.154Z,83.22
2023-03-26T08:23:55.524Z,84.34
2023-03-26T08:26:35.698Z,84.43
2023-03-26T08:29:28.476Z,83.04
2023-03-26T08:31:56.064Z,82.90
2023-03-26T08:34:22.427Z,83.53
2023-03-26T08:36:48.872Z,81.80
2023-03-26T08:39:15.257Z,81.56
2023-03-26T08:42:06.599Z,82.69
2023-03-26T08:44:58.936Z,83.52
2023-03-26T08:48:04.161Z,84.91
2023-03-26T08:50:51.316Z,86.23
2023-03-26T08:53:23.481Z,85.52
2023-03-26T08:56:18.426Z,85.61
2023-03-26T08:59:06.917Z,85.36
2023-03-26T09:01:55.809Z,84.56
2023-03-26T09:04:53.728Z,85.60
2023-03-26T09:08:06.120Z,86.97
2023-03-26T09:10:51.873Z,87.12
2023-03-26T09:13:33.221Z,86.16
2023-03-26T09:16:23.421Z,86.41
2023-03-26T09:19:14.601Z,86.53
2023-03-26T09:21:55.717Z,87.11
2023-03-26T09:25:04.153Z,87.57
2023-03-26T09:28:05.124Z,86.96
2023-03-26T09:30:50.347Z,86.52
2023-03-26T09:34:13.757Z,87.88
2023-03-26T09:36:52.881Z,87.27
2023-03-26T09:39:34.697Z,87.61
2023-03-26T09:42:21.120Z,87.88
2023-03-26T09:45:25.208Z,87.38
2023-03-26T09:48:24.089Z,88.21
2023-03-26T09:51:05.496Z,88.43
2023-03-26T09:53:50.791Z,87.79
2023-03-26T09:56:39.702Z,87.23
2023-03-26T09:59:27.861Z,87.80
2023-03-26T10:02:12.532Z,87.53
2023-03-26T10:05:05.233Z,89.09
2023-03-26T10:08:14.437Z,87.95
2023-03-26T10:11:05.724Z,88.56
2023-03-26T10:13:44.321Z,88.89
2023-03-26T10:16:42.802Z,88.51
2023-03-26T10:19:43.086Z,88.78
2023-03-26T10:22:24.775Z,89.26
2023-03-26T10:25:28.841Z,88.28
2023-03-26T10:28:22.548Z,89.13
2023-03-26T10:31:07.007Z,88.03
2023-03-26T10:33:54.005Z,86.91
2023-03-26T10:36:35.605Z,84.95
2023-03-26T10:39:36.324Z,84.91
2023-03-26T10:42:16.671Z,84.72
2023-03-26T10:45:00.564Z,84.31
2023-03-26T10:48:06.143Z,85.44
2023-03-26T10:50:50.853Z,85.35
2023-03-26T10:53:29.391Z,86.38
2023-03-26T10:56:07.129Z,86.87
2023-03-26T10:58:48.410Z,85.88
2023-03-26T11:01:35.971Z,86.00
2023-03-26T11:04:20.592Z,87.24
2023-03-26T11:06:54.638Z,86.55
2023-03-26T11:09:39.233Z,88.23
2023-03-26T11:12:31.418Z,88.54
2023-03-26T11:15:35.264Z,88.22
2023-03-26T11:18:22.170Z,89.71
2023-03-26T11:21:24.513Z,88.88
2023-03-26T11:24:06.053Z,89.39
2023-03-26T11:26:55.649Z,90.12
2023-03-26T11:29:33.718Z,89.97
2023-03-26T11:32:11.605Z,89.46
2023-03-26T11:34:43.298Z,90.83
2023-03-26T11:37:19.390Z,91.90
2023-03-26T11:39:51.161Z,90.71
2023-03-26T11:42:22.642Z,91.47
2023-03-26T11:45:05.620Z,91.69
2023-03-26T11:47:53.595Z,91.31
2023-03-26T11:50:34.205Z,91.51
2023-03-26T11:53:12.903Z,92.22
2023-03-26T11:55:44.597Z,91.89
2023-03-26T11:58:38.249Z,91.93
2023-03-26T12:01:14.408Z,92.00
2023-03-26T12:03:41.155Z,90.85
2023-03-26T12:06:25.639Z,91.18
2023-03-26T12:08:53.878Z,92.62
2023-03-26T12:11:28.300Z,90.48
2023-03-26T12:14:00.299Z,91.06
2023-03-26T12:16:27.263Z,91.72
2023-03-26T12:19:01.026Z,91.79
2023-03-26T12:21:27.458Z,91.76
2023-03-26T12:24:02.445Z,89.05
2023-03-26T12:26:35.705Z,88.69
2023-03-26T12:29:16.527Z,89.99
2023-03-26T12:32:15.790Z,89.52
2023-03-26T12:34:42.657Z,89.64
2023-03-26T12:37:34.454Z,90.24
2023-03-26T12:40:27.688Z,89.08
2023-03-26T12:44:54.770Z,87.21
2023-03-26T12:47:55.533Z,90.01
2023-03-26T12:48:45.369Z,87.77
2023-03-26T12:51:57.495Z,85.91
2023-03-26T12:54:50.452Z,86.57
2023-03-26T12:57:25.030Z,85.50
2023-03-26T13:00:58.802Z,85.74
2023-03-26T13:03:41.737Z,85.47
2023-03-26T13:06:48.526Z,84.34
2023-03-26T13:09:52.871Z,85.38
2023-03-26T13:12:38.080Z,85.80
2023-03-26T13:15:25.484Z,85.92
2023-03-26T13:18:19.640Z,85.55
2023-03-26T13:21:07.320Z,86.76
2023-03-26T13:23:59.051Z,85.33
2023-03-26T13:26:42.117Z,84.95
2023-03-26T13:29:17.507Z,85.29
2023-03-26T13:31:54.406Z,85.34
2023-03-26T13:35:14.938Z,82.68
2023-03-26T13:37:58.650Z,83.61
2023-03-26T13:40:46.795Z,82.73
2023-03-26T13:43:23.294Z,81.50
2023-03-26T13:45:59.505Z,82.14
2023-03-26T13:48:30.093Z,79.72
2023-03-26T13:51:15.345Z,80.96
2023-03-26T13:54:01.053Z,77.93
2023-03-26T13:56:43.185Z,79.40
2023-03-26T13:59:26.114Z,80.10
2023-03-26T14:01:56.964Z,79.60
2023-03-26T14:04:32.420Z,80.37
2023-03-26T14:07:13.495Z,81.83
2023-03-26T14:09:53.526Z,83.01
2023-03-26T14:12:54.174Z,81.80
2023-03-26T14:15:30.823Z,82.81
2023-03-26T14:18:03.678Z,83.37
2023-03-26T14:20:48.373Z,84.64
2023-03-26T14:23:34.866Z,82.31
2023-03-26T14:26:22.801Z,83.56
2023-03-26T14:29:11.188Z,84.32
2023-03-26T14:32:09.706Z,83.68
2023-03-26T14:34:54.897Z,84.17
2023-03-26T14:37:52.973Z,87.60
2023-03-26T14:40:47.844Z,86.22
2023-03-26T14:43:43.880Z,84.99
2023-03-26T14:46:40.882Z,86.65
2023-03-26T14:49:22.858Z,82.50
2023-03-26T14:51:55.702Z,81.83
2023-03-26T14:54:27.035Z,85.60
2023-03-26T14:57:01.015Z,82.39
2023-03-26T15:00:17.930Z,81.39
2023-03-26T15:03:03.004Z,82.95
2023-03-26T15:06:00.637Z,80.98
2023-03-26T15:08:39.324Z,83.01
2023-03-26T15:11:17.846Z,79.67
2023-03-26T15:14:16.368Z,82.44
2023-03-26T15:17:01.690Z,84.30
2023-03-26T15:20:09.195Z,86.31
2023-03-26T15:23:01.925Z,85.05
2023-03-26T15:25:54.740Z,85.84
2023-03-26T15:29:00.203Z,85.09
2023-03-26T15:31:47.597Z,84.53
2023-03-26T15:34:50.640Z,86.39
2023-03-26T15:37:35.782Z,86.72
2023-03-26T15:40:23.904Z,87.03
2023-03-26T15:42:53.308Z,87.10
2023-03-26T15:45:35.265Z,83.40
2023-03-26T15:48:13.894Z,85.89
2023-03-26T15:50:58.807Z,86.64
2023-03-26T15:53:49.118Z,83.33
2023-03-26T15:56:58.018Z,80.73
2023-03-26T15:59:37.059Z,83.54
2023-03-26T16:02:07.506Z,84.83
2023-03-26T16:05:16.908Z,86.50
2023-03-26T16:07:47.036Z,83.75
2023-03-26T16:10:40.849Z,85.14
2023-03-26T16:13:19.366Z,83.70
2023-03-26T16:16:04.252Z,85.06
2023-03-26T16:18:36.880Z,84.24
2023-03-26T16:21:31.659Z,84.50
2023-03-26T16:24:08.085Z,85.58
2023-03-26T16:26:43.782Z,86.20
2023-03-26T16:29:18.361Z,87.14
2023-03-26T16:32:09.827Z,88.11
2023-03-26T16:34:48.123Z,87.31
2023-03-26T16:37:39.838Z,87.68
2023-03-26T16:40:32.323Z,88.56
2023-03-26T16:43:05.286Z,88.73
2023-03-26T16:45:37.269Z,88.36
2023-03-26T16:48:34.474Z,88.01
2023-03-26T16:51:14.882Z,87.76
2023-03-26T16:54:04.275Z,88.89
2023-03-26T16:56:45.196Z,88.81
2023-03-26T16:59:36.158Z,88.98
2023-03-26T17:02:29.057Z,88.85
2023-03-26T17:05:07.825Z,90.71
2023-03-26T17:07:41.567Z,90.64
2023-03-26T17:10:41.316Z,91.64
2023-03-26T17:13:17.125Z,92.07
2023-03-26T17:16:01.719Z,92.41
2023-03-26T17:18:43.084Z,92.14
2023-03-26T17:21:18.254Z,91.89
2023-03-26T17:23:55.255Z,92.69
2023-03-26T17:26:41.114Z,92.05
2023-03-26T17:29:22.796Z,92.10
2023-03-26T17:32:01.440Z,92.10
2023-03-26T17:34:51.458Z,91.35
2023-03-26T17:37:23.983Z,88.62
2023-03-26T17:39:50.328Z,90.28
2023-03-26T17:42:27.359Z,91.19
2023-03-26T17:44:57.538Z,90.82
2023-03-26T17:47:38.124Z,89.51
2023-03-26T17:50:16.291Z,90.23
2023-03-26T17:52:55.219Z,90.57
2023-03-26T17:55:31.273Z,89.33
2023-03-26T17:58:06.760Z,88.29
2023-03-26T18:00:40.378Z,88.24
2023-03-26T18:03:18.969Z,87.13
2023-03-26T18:05:46.924Z,87.65
2023-03-26T18:08:28.521Z,87.70
2023-03-26T18:11:13.889Z,87.53
2023-03-26T18:13:55.661Z,87.63
2023-03-26T18:16:28.953Z,88.64
2023-03-26T18:19:00.574Z,88.41
2023-03-26T18:21:37.415Z,88.43
2023-03-26T18:24:13.663Z,88.34
2023-03-26T18:26:43.131Z,89.01
2023-03-26T18:29:23.966Z,89.17
2023-03-26T18:31:57.551Z,89.99
2023-03-26T18:34:26.034Z,90.11
2023-03-26T18:37:08.454Z,90.79
2023-03-26T18:39:35.062Z,91.52
2023-03-26T18:42:01.612Z,90.07
2023-03-26T18:44:28.257Z,90.30
2023-03-26T18:46:55.356Z,89.96
2023-03-26T18:49:23.912Z,89.52
2023-03-26T18:51:57.079Z,89.66
2023-03-26T18:54:29.273Z,90.19
2023-03-26T18:56:56.160Z,90.07
2023-03-26T18:59:31.787Z,88.70
2023-03-26T19:02:13.609Z,89.38
2023-03-26T19:04:46.218Z,90.38
2023-03-26T19:07:16.363Z,89.90
2023-03-26T19:09:43.912Z,89.68
2023-03-26T19:12:28.235Z,91.02
2023-03-26T19:14:57.885Z,90.63
2023-03-26T19:17:30.606Z,91.29
2023-03-26T19:19:57.657Z,91.92
2023-03-26T19:22:25.204Z,91.79
2023-03-26T19:24:58.041Z,92.44
2023-03-26T19:27:24.616Z,92.25
2023-03-26T19:29:51.191Z,92.23
2023-03-26T19:32:20.696Z,91.89
2023-03-26T19:34:48.377Z,90.39
2023-03-26T19:37:20.315Z,89.97
2023-03-26T19:39:53.905Z,89.22
2023-03-26T19:42:23.821Z,89.07
2023-03-26T19:44:51.648Z,89.30
2023-03-26T19:47:43.468Z,88.29
2023-03-26T19:50:27.405Z,86.84
2023-03-26T19:53:17.699Z,88.27
2023-03-26T19:56:10.880Z,88.81
2023-03-26T19:58:37.539Z,88.31
2023-03-26T20:01:04.588Z,88.47
2023-03-26T20:03:40.962Z,87.90
2023-03-26T20:06:14.962Z,88.33
2023-03-26T20:08:41.522Z,89.47
2023-03-26T20:11:18.485Z,90.27
2023-03-26T20:13:45.293Z,89.86
2023-03-26T20:16:18.277Z,89.64
2023-03-26T20:18:44.832Z,90.28
2023-03-26T20:21:12.497Z,90.42
2023-03-26T20:23:40.338Z,89.98
2023-03-26T20:26:12.671Z,90.05
2023-03-26T20:28:47.702Z,89.82
2023-03-26T20:31:19.198Z,90.16
2023-03-26T20:33:46.422Z,90.39
2023-03-26T20:36:13.694Z,91.04
2023-03-26T20:38:40.973Z,91.42
2023-03-26T20:41:15.067Z,90.85
2023-03-26T20:43:42.418Z,90.21
2023-03-26T20:46:23.340Z,91.28
2023-03-26T20:48:58.005Z,91.44
2023-03-26T20:51:24.512Z,91.59
2023-03-26T20:53:50.880Z,92.52
2023-03-26T20:56:19.907Z,91.68
2023-03-26T20:58:54.768Z,91.56
2023-03-26T21:01:27.727Z,91.23
2023-03-26T21:03:54.451Z,92.02
2023-03-26T21:06:20.922Z,91.66
2023-03-26T21:08:47.654Z,92.40
2023-03-26T21:11:26.546Z,91.72
2023-03-26T21:14:30.925Z,91.56
2023-03-26T21:16:57.860Z,91.04
2023-03-26T21:19:25.121Z,91.78
2023-03-26T21:21:59.400Z,92.12
2023-03-26T21:24:39.986Z,91.78
2023-03-26T21:27:34.320Z,91.32
2023-03-26T21:30:01.079Z,91.36
2023-03-26T21:32:29.084Z,91.85
2023-03-26T21:34:58.954Z,91.24
2023-03-26T21:37:26.672Z,91.36
2023-03-26T21:39:53.297Z,92.11
2023-03-26T21:42:20.097Z,90.93
2023-03-26T21:44:46.883Z,91.53
2023-03-26T21:47:13.996Z,90.99
2023-03-26T21:49:41.220Z,90.47
2023-03-26T21:52:13.529Z,91.24
2023-03-26T21:54:42.917Z,90.81
2023-03-26T21:57:34.410Z,90.63
2023-03-26T22:00:08.347Z,90.81
2023-03-26T22:02:59.467Z,90.43
2023-03-26T22:05:35.045Z,90.59
2023-03-26T22:08:07.998Z,91.01
2023-03-26T22:10:34.479Z,89.90
2023-03-26T22:13:00.843Z,89.73
2023-03-26T22:15:30.602Z,89.43
2023-03-26T22:18:02.262Z,89.63
2023-03-26T22:20:29.305Z,90.29
2023-03-26T22:22:55.835Z,89.71
2023-03-26T22:25:23.413Z,90.52
2023-03-26T22:27:51.032Z,89.75
2023-03-26T22:30:18.905Z,90.21
2023-03-26T22:32:45.460Z,90.97
2023-03-26T22:35:12.904Z,90.86
2023-03-26T22:37:39.964Z,90.64
2023-03-26T22:40:13.563Z,91.89
2023-03-26T22:42:41.221Z,91.27
2023-03-26T22:45:09.171Z,91.14
2023-03-26T22:47:35.988Z,90.97
2023-03-26T22:50:04.938Z,91.00
2023-03-26T22:52:31.481Z,91.05
2023-03-26T22:54:57.932Z,91.29
2023-03-26T22:57:24.377Z,91.21
2023-03-26T22:59:51.998Z,91.04
2023-03-26T23:02:19.101Z,91.33
2023-03-26T23:04:47.701Z,91.45
2023-03-26T23:07:14.307Z,91.39
2023-03-26T23:09:41.551Z,91.65
2023-03-26T23:12:08.079Z,91.30
2023-03-26T23:14:34.568Z,90.86
2023-03-26T23:17:01.505Z,90.71
2023-03-26T23:19:29.817Z,91.00
2023-03-26T23:21:56.554Z,90.91
2023-03-26T23:24:26.185Z,90.87
2023-03-26T23:26:53.125Z,90.67
2023-03-26T23:29:19.808Z,91.35
2023-03-26T23:31:46.299Z,91.37
2023-03-26T23:34:13.470Z,91.29
2023-03-26T23:36:40.856Z,91.05
2023-03-26T23:39:08.975Z,91.05
2023-03-26T23:41:35.382Z,91.04
2023-03-26T23:44:01.852Z,90.87
2023-03-26T23:46:34.530Z,90.90
2023-03-26T23:49:04.467Z,91.53
2023-03-26T23:51:32.042Z,91.65
2023-03-26T23:53:59.737Z,91.83
2023-03-26T23:56:27.656Z,91.17
2023-03-26T23:58:55.079Z,91.82
